createdAt,value
2023-03-06T00:08:47.780Z,12.47
2023-03-06T00:23:50.087Z,14.13
2023-03-06T00:38:52.481Z,14.40
2023-03-06T00:53:54.768Z,14.30
2023-03-06T01:08:57.350Z,16.17
2023-03-06T01:24:00.918Z,16.07
2023-03-06T01:39:03.738Z,14.17
2023-03-06T01:54:12.394Z,18.40
2023-03-06T02:09:16.097Z,20.50
2023-03-06T02:24:39.090Z,21.27
2023-03-06T02:39:46.657Z,20.57
2023-03-06T02:54:50.844Z,22.73
2023-03-06T03:09:53.246Z,26.27
2023-03-06T03:24:56.228Z,28.00
2023-03-06T03:39:59.503Z,28.83
2023-03-06T03:55:02.912Z,29.57
2023-03-06T04:10:07.755Z,27.77
2023-03-06T04:25:11.001Z,27.67
2023-03-06T04:40:19.421Z,29.87
2023-03-06T04:55:22.063Z,31.80
2023-03-06T05:10:24.645Z,32.67
2023-03-06T05:25:27.030Z,33.03
2023-03-06T05:40:29.453Z,34.53
2023-03-06T05:55:31.844Z,32.07
2023-03-06T06:10:34.158Z,31.73
2023-03-06T06:25:37.501Z,32.83
2023-03-06T06:40:39.814Z,38.17
2023-03-06T06:55:42.877Z,34.13
2023-03-06T07:10:45.321Z,38.33
2023-03-06T07:25:47.765Z,38.47
2023-03-06T07:40:51.341Z,36.43
2023-03-06T07:55:54.041Z,38.20
2023-03-06T08:10:56.416Z,35.53
2023-03-06T08:26:00.751Z,37.10
2023-03-06T08:41:03.390Z,37.93
2023-03-06T08:56:07.193Z,35.90
2023-03-06T09:11:11.884Z,37.50
2023-03-06T09:26:14.208Z,35.43
2023-03-06T09:41:26.317Z,29.60
2023-03-06T09:56:34.049Z,31.93
2023-03-06T10:11:52.695Z,31.07
2023-03-06T10:27:10.370Z,28.80
2023-03-06T10:42:13.277Z,26.93
2023-03-06T10:57:31.611Z,23.63
2023-03-06T11:12:39.344Z,21.10
2023-03-06T11:27:45.097Z,24.17
2023-03-06T11:42:54.224Z,21.20
2023-03-06T11:58:07.310Z,20.43
2023-03-06T12:13:37.075Z,19.60
2023-03-06T12:28:57.087Z,20.67
2023-03-06T12:44:25.128Z,18.50
2023-03-06T12:59:47.879Z,18.63
2023-03-06T13:14:56.721Z,21.13
2023-03-06T13:30:19.697Z,20.37
2023-03-06T13:45:29.894Z,18.53
2023-03-06T14:00:50.971Z,18.17
2023-03-06T14:15:55.036Z,22.57
2023-03-06T14:30:59.611Z,21.10
2023-03-06T14:46:08.913Z,21.40
2023-03-06T15:01:13.239Z,23.10
2023-03-06T15:16:18.450Z,19.90
2023-03-06T15:31:23.533Z,19.57
2023-03-06T15:46:25.926Z,19.27
2023-03-06T16:01:28.417Z,22.13
2023-03-06T16:16:35.559Z,21.43
2023-03-06T16:31:37.942Z,23.33
2023-03-06T16:46:42.638Z,21.07
2023-03-06T17:01:45.013Z,20.30
2023-03-06T17:16:47.477Z,19.03
2023-03-06T17:31:49.793Z,17.67
2023-03-06T17:46:52.204Z,21.93
2023-03-06T18:01:58.745Z,21.40
2023-03-06T18:17:01.087Z,23.30
2023-03-06T18:32:03.495Z,22.83
2023-03-06T18:47:06.379Z,19.60
2023-03-06T19:02:10.834Z,23.03
2023-03-06T19:17:13.139Z,22.93
2023-03-06T19:32:15.586Z,23.90
2023-03-06T19:47:18.045Z,23.07
2023-03-06T20:02:26.266Z,24.60
2023-03-06T20:17:28.612Z,25.93
2023-03-06T20:32:31.064Z,26.40
2023-03-06T20:47:33.530Z,26.37
2023-03-06T21:02:36.229Z,25.30
2023-03-06T21:17:38.833Z,29.47
2023-03-06T21:32:41.278Z,26.43
2023-03-06T21:47:43.645Z,23.53
2023-03-06T22:02:46.858Z,21.23
2023-03-06T22:17:49.444Z,21.50
2023-03-06T22:32:54.769Z,18.87
2023-03-06T22:48:09.087Z,15.43
2023-03-06T23:03:13.013Z,15.27
2023-03-06T23:18:15.617Z,13.30
2023-03-06T23:33:38.743Z,11.90
2023-03-06T23:48:42.020Z,10.67
